Aviation Digital Data Service (ADDS)

Output produced by METARs form (0054 UTC 22 September 2017)
found at http://www.aviationweather.gov/adds/metars/
 
TAF SCFA 212211Z 2200/2224 20006KT 9999 FEW015 BKN025 TN14/2206Z TX17 /2218Z 
     BECMG 2204/2206 OVC022 
     TEMPO 2207/2211 36004KT 
     BECMG 2215/2217 20012KT FEW023
       
TAF COR SCAR 212307Z 2200/2224 21005KT 9999 OVC028 TN15/2207Z TX18/ 2218Z 
     BECMG 2208/2210 24004KT 
     BECMG 2216/2218 21013KT SCT031 
     BECMG 2223/2224 OVC030
       
TAF SCBA 212251Z 2200/2224 30020G30KT 9999 SCT040 TN03/2210Z TX13/2219Z 
     BECMG 2206/2208 31015KT CAVOK 
     BECMG 2216/2218 31020G30KT
       
TAF SCCF 212210Z 2200/2224 26012KT CAVOK TN03/2209Z TX24/2219Z 
     BECMG 2202/2204 10016KT 
     BECMG 2217/2219 28021KT
       
TAF SCIE 212201Z 2200/2224 22012KT CAVOK TX16/2218Z TN06/2210Z 
     BECMG 2201/2203 21008KT 
     TEMPO 2205/2214 15004KT FEW010 
     BECMG 2215/2217 22010KT
       
TAF SCAT 212211Z 2200/2224 29007KT 9999 OVC010 TN10/2208Z TX18/2218Z 
     BECMG 2204/2206 36004KT 
     BECMG 2210/2212 33005KT 
     BECMG 2216/2218 29010KT CAVOK 
     BECMG 2222/2224 BKN015
       
TAF COR SCDA 212306Z 2200/2224 27006KT 9999 OVC025 TN15/2206Z TX17/ 2218Z 
     TEMPO 2206/2210 33005KT 
     BECMG 2215/2217 22012KT SCT030
       
TAF SCSE 212200Z 2200/2224 29010KT CAVOK TX20/2218Z TN09/2210Z 
     BECMG 2201/2203 29004KT 
     TEMPO 2206/2214 10004KT SCT010 BKN020 
     BECMG 2216/2218 29010KT
       
TAF SCTE 212250Z 2200/2224 36007KT 9999 SCT020 BKN050 TN07/2208Z TX15/2219Z 
     BECMG 2202/2204 4000 -RA OVC015 
     BECMG 2208/2210 VRB02KT 6000 SHRA BKN015 BKN030 
     BECMG 2212/2214 9999 NSW SCT020 BKN035
       
TAF SCCI 212216Z 2200/2300 27012KT 9999 SCT040 TN02/2209Z TX10/2218Z 
     BECMG 2202/2204 24010KT 
     TEMPO 2203/2206 SCT020 
     TEMPO 2210/2213 28005KT 
     BECMG 2214/2216 30015G25KT 
     BECMG 2221/2223 30020G30KT
       
TAF SCEL 212201Z 2200/2224 20008KT CAVOK TX25/2218Z TN05/2210Z 
     BECMG 2202/2204 16004KT 7000 NSC 
     TEMPO 2205/2214 VRB02KT 4000 BR NSC 
     BECMG 2216/2218 20008KT